createdAt,value
2022-11-13T00:00:39.850Z,9.58
2022-11-13T00:03:06.621Z,9.53
2022-11-13T00:05:33.079Z,9.44
2022-11-13T00:08:00.454Z,9.42
2022-11-13T00:10:26.972Z,9.46
2022-11-13T00:12:53.525Z,9.62
2022-11-13T00:15:20.663Z,9.73
2022-11-13T00:17:47.316Z,9.85
2022-11-13T00:20:13.794Z,9.90
2022-11-13T00:22:40.340Z,9.98
2022-11-13T00:25:07.058Z,10.01
2022-11-13T00:27:33.527Z,10.03
2022-11-13T00:30:02.602Z,10.04
2022-11-13T00:32:29.070Z,9.76
2022-11-13T00:34:55.695Z,9.71
2022-11-13T00:37:22.209Z,9.70
2022-11-13T00:39:48.663Z,9.81
2022-11-13T00:42:15.199Z,9.45
2022-11-13T00:44:41.727Z,9.60
2022-11-13T00:47:08.238Z,9.43
2022-11-13T00:49:34.711Z,9.34
2022-11-13T00:52:01.159Z,9.50
2022-11-13T00:54:27.666Z,9.45
2022-11-13T00:56:54.201Z,9.59
2022-11-13T00:59:20.980Z,9.78
2022-11-13T01:01:47.597Z,9.88
2022-11-13T01:04:14.139Z,10.07
2022-11-13T01:06:40.578Z,10.12
2022-11-13T01:09:07.091Z,10.22
2022-11-13T01:11:33.761Z,10.33
2022-11-13T01:14:00.273Z,10.36
2022-11-13T01:16:27.602Z,10.24
2022-11-13T01:18:55.247Z,10.24
2022-11-13T01:21:24.833Z,10.16
2022-11-13T01:23:51.417Z,10.29
2022-11-13T01:26:23.574Z,10.31
2022-11-13T01:28:50.415Z,10.25
2022-11-13T01:31:20.011Z,10.15
2022-11-13T01:33:47.303Z,10.11
2022-11-13T01:36:17.729Z,10.29
2022-11-13T01:38:44.366Z,10.43
2022-11-13T01:41:21.821Z,10.36
2022-11-13T01:43:50.727Z,10.29
2022-11-13T01:46:26.603Z,10.23
2022-11-13T01:49:12.668Z,10.08
2022-11-13T01:51:42.745Z,10.03
2022-11-13T01:54:17.413Z,10.20
2022-11-13T01:56:44.053Z,10.16
2022-11-13T01:59:14.855Z,10.03
2022-11-13T02:01:41.885Z,9.77
2022-11-13T02:04:08.495Z,9.80
2022-11-13T02:06:44.190Z,9.64
2022-11-13T02:09:11.306Z,9.49
2022-11-13T02:11:38.039Z,9.31
2022-11-13T02:14:04.900Z,9.25
2022-11-13T02:16:33.200Z,9.14
2022-11-13T02:19:00.533Z,9.03
2022-11-13T02:21:43.301Z,8.91
2022-11-13T02:24:32.748Z,9.09
2022-11-13T02:27:05.733Z,8.98
2022-11-13T02:29:32.366Z,8.86
2022-11-13T02:31:58.880Z,8.77
2022-11-13T02:34:25.645Z,8.77
2022-11-13T02:36:52.524Z,8.78
2022-11-13T02:39:19.114Z,8.93
2022-11-13T02:41:45.694Z,9.15
2022-11-13T02:44:12.235Z,9.24
2022-11-13T02:46:38.827Z,9.32
2022-11-13T02:49:05.467Z,9.35
2022-11-13T02:51:31.956Z,9.32
2022-11-13T02:53:58.473Z,9.18
2022-11-13T02:56:25.022Z,9.16
2022-11-13T02:58:51.521Z,9.26
2022-11-13T03:01:18.251Z,9.29
2022-11-13T03:04:00.009Z,9.35
2022-11-13T03:06:26.509Z,9.27
2022-11-13T03:08:53.037Z,9.04
2022-11-13T03:11:19.538Z,9.22
2022-11-13T03:13:46.023Z,9.44
2022-11-13T03:16:16.690Z,9.49
2022-11-13T03:18:43.337Z,9.64
2022-11-13T03:21:12.286Z,9.67
2022-11-13T03:23:40.382Z,9.89
2022-11-13T03:26:08.525Z,10.06
2022-11-13T03:28:35.210Z,10.33
2022-11-13T03:31:01.899Z,10.47
2022-11-13T03:33:28.431Z,10.56
2022-11-13T03:35:55.003Z,10.60
2022-11-13T03:38:22.006Z,10.68
2022-11-13T03:40:48.956Z,10.77
2022-11-13T03:43:15.600Z,10.92
2022-11-13T03:45:44.598Z,10.88
2022-11-13T03:48:11.068Z,10.98
2022-11-13T03:50:42.793Z,11.01
2022-11-13T03:53:11.854Z,11.03
2022-11-13T03:55:38.385Z,11.06
2022-11-13T03:58:05.217Z,11.10
2022-11-13T04:00:32.543Z,11.08
2022-11-13T04:02:59.080Z,10.83
2022-11-13T04:05:25.713Z,10.79
2022-11-13T04:07:57.626Z,10.76
2022-11-13T04:10:24.119Z,10.83
2022-11-13T04:13:03.412Z,10.95
2022-11-13T04:15:41.389Z,10.76
2022-11-13T04:18:08.009Z,10.51
2022-11-13T04:20:34.524Z,10.79
2022-11-13T04:23:01.164Z,10.90
2022-11-13T04:25:27.660Z,11.02
2022-11-13T04:27:54.741Z,11.03
2022-11-13T04:30:21.316Z,11.11
2022-11-13T04:32:47.850Z,11.02
2022-11-13T04:35:14.352Z,10.82
2022-11-13T04:37:40.834Z,10.66
2022-11-13T04:40:08.093Z,10.26
2022-11-13T04:42:34.898Z,10.53
2022-11-13T04:45:01.517Z,10.49
2022-11-13T04:47:28.014Z,10.35
2022-11-13T04:49:54.533Z,10.41
2022-11-13T04:52:21.029Z,10.54
2022-11-13T04:54:47.900Z,10.59
2022-11-13T04:57:14.520Z,10.72
2022-11-13T04:59:41.002Z,10.54
2022-11-13T05:02:07.661Z,10.46
2022-11-13T05:04:34.167Z,10.49
2022-11-13T05:07:00.758Z,10.77
2022-11-13T05:09:27.259Z,10.78
2022-11-13T05:11:53.820Z,10.92
2022-11-13T05:14:20.297Z,10.97
2022-11-13T05:16:46.776Z,11.06
2022-11-13T05:19:13.288Z,11.11
2022-11-13T05:21:39.885Z,11.08
2022-11-13T05:24:07.046Z,11.12
2022-11-13T05:26:33.682Z,10.87
2022-11-13T05:29:00.673Z,10.73
2022-11-13T05:31:27.412Z,10.81
2022-11-13T05:33:54.046Z,10.95
2022-11-13T05:36:21.560Z,10.77
2022-11-13T05:38:48.672Z,10.85
2022-11-13T05:41:20.599Z,10.96
2022-11-13T05:43:47.638Z,10.82
2022-11-13T05:46:26.294Z,10.85
2022-11-13T05:49:00.608Z,10.85
2022-11-13T05:51:30.285Z,10.91
2022-11-13T05:53:57.100Z,11.02
2022-11-13T05:56:31.750Z,11.01
2022-11-13T05:58:59.442Z,10.97
2022-11-13T06:01:29.173Z,11.02
2022-11-13T06:03:57.160Z,11.10
2022-11-13T06:06:24.692Z,11.01
2022-11-13T06:08:52.201Z,10.97
2022-11-13T06:11:20.485Z,11.17
2022-11-13T06:13:47.807Z,11.22
2022-11-13T06:16:16.468Z,11.14
2022-11-13T06:18:44.249Z,11.17
2022-11-13T06:21:15.748Z,11.12
2022-11-13T06:23:43.002Z,11.12
2022-11-13T06:26:18.923Z,11.14
2022-11-13T06:28:46.160Z,11.03
2022-11-13T06:31:18.489Z,10.70
2022-11-13T06:33:45.141Z,10.44
2022-11-13T06:36:17.245Z,10.57
2022-11-13T06:38:43.971Z,10.66
2022-11-13T06:41:13.157Z,10.82
2022-11-13T06:43:39.907Z,10.87
2022-11-13T06:46:10.220Z,10.92
2022-11-13T06:48:36.616Z,10.96
2022-11-13T06:51:05.269Z,10.84
2022-11-13T06:53:32.228Z,10.72
2022-11-13T06:55:59.259Z,10.70
2022-11-13T06:58:26.033Z,10.83
2022-11-13T07:00:53.038Z,10.90
2022-11-13T07:03:25.216Z,10.82
2022-11-13T07:05:52.236Z,10.74
2022-11-13T07:08:18.703Z,10.77
2022-11-13T07:10:52.967Z,10.95
2022-11-13T07:13:19.514Z,11.00
2022-11-13T07:15:46.009Z,11.01
2022-11-13T07:18:12.566Z,11.08
2022-11-13T07:20:39.156Z,10.94
2022-11-13T07:23:05.634Z,10.98
2022-11-13T07:25:32.270Z,10.96
2022-11-13T07:27:58.775Z,10.80
2022-11-13T07:30:25.692Z,10.67
2022-11-13T07:32:52.354Z,10.44
2022-11-13T07:35:18.854Z,10.63
2022-11-13T07:37:45.303Z,10.62
2022-11-13T07:40:12.052Z,10.56
2022-11-13T07:42:39.300Z,10.56
2022-11-13T07:45:06.474Z,10.72
2022-11-13T07:47:33.072Z,10.93
2022-11-13T07:50:04.576Z,10.84
2022-11-13T07:52:33.383Z,10.78
2022-11-13T07:54:59.906Z,10.82
2022-11-13T07:57:26.509Z,10.81
2022-11-13T07:59:53.022Z,10.92
2022-11-13T08:02:23.618Z,10.87
2022-11-13T08:04:53.388Z,10.95
2022-11-13T08:07:20.197Z,10.96
2022-11-13T08:09:46.746Z,11.15
2022-11-13T08:12:13.290Z,11.00
2022-11-13T08:14:39.785Z,11.23
2022-11-13T08:17:06.241Z,11.30
2022-11-13T08:19:32.773Z,11.24
2022-11-13T08:21:59.323Z,11.21
2022-11-13T08:24:25.793Z,11.34
2022-11-13T08:26:52.267Z,11.31
2022-11-13T08:29:19.068Z,11.45
2022-11-13T08:31:45.594Z,11.35
2022-11-13T08:34:12.079Z,11.41
2022-11-13T08:36:38.549Z,11.43
2022-11-13T08:39:08.950Z,11.45
2022-11-13T08:41:35.407Z,11.48
2022-11-13T08:44:05.006Z,11.38
2022-11-13T08:46:31.608Z,11.15
2022-11-13T08:48:58.080Z,11.15
2022-11-13T08:51:24.551Z,11.00
2022-11-13T08:53:51.088Z,11.11
2022-11-13T08:56:17.583Z,11.25
2022-11-13T08:58:44.160Z,11.32
2022-11-13T09:01:10.684Z,11.27
2022-11-13T09:03:37.274Z,11.43
2022-11-13T09:06:07.405Z,11.53
2022-11-13T09:08:33.954Z,11.56
2022-11-13T09:11:04.871Z,11.58
2022-11-13T09:13:32.480Z,11.38
2022-11-13T09:16:00.514Z,11.20
2022-11-13T09:18:27.324Z,11.23
2022-11-13T09:20:54.900Z,11.44
2022-11-13T09:23:21.943Z,11.52
2022-11-13T09:25:48.411Z,11.56
2022-11-13T09:28:14.971Z,11.59
2022-11-13T09:30:41.566Z,11.69
2022-11-13T09:33:08.085Z,11.74
2022-11-13T09:35:34.561Z,11.95
2022-11-13T09:38:11.175Z,12.00
2022-11-13T09:40:58.280Z,12.19
2022-11-13T09:43:33.871Z,12.09
2022-11-13T09:46:05.375Z,12.10
2022-11-13T09:48:37.735Z,12.21
2022-11-13T09:51:13.354Z,12.20
2022-11-13T09:53:40.456Z,12.38
2022-11-13T09:56:19.416Z,12.46
2022-11-13T09:59:01.344Z,12.44
2022-11-13T10:01:43.566Z,12.52
2022-11-13T10:04:14.480Z,12.38
2022-11-13T10:06:57.256Z,12.42
2022-11-13T10:09:46.050Z,12.31
2022-11-13T10:12:14.237Z,12.00
2022-11-13T10:14:45.724Z,12.22
2022-11-13T10:17:29.020Z,12.48
2022-11-13T10:20:04.843Z,12.64
2022-11-13T10:22:41.792Z,12.73
2022-11-13T10:25:14.116Z,12.74
2022-11-13T10:27:40.896Z,12.90
2022-11-13T10:30:15.609Z,12.83
2022-11-13T10:32:42.479Z,12.65
2022-11-13T10:35:42.425Z,12.64
2022-11-13T10:38:20.347Z,12.69
2022-11-13T10:40:46.949Z,12.55
2022-11-13T10:43:20.196Z,12.52
2022-11-13T10:46:00.839Z,12.51
2022-11-13T10:48:30.432Z,12.46
2022-11-13T10:51:27.097Z,12.16
2022-11-13T10:53:54.451Z,12.25
2022-11-13T10:56:28.242Z,12.25
2022-11-13T10:59:11.333Z,12.70
2022-11-13T11:01:38.730Z,12.61
2022-11-13T11:04:12.766Z,12.63
2022-11-13T11:09:29.202Z,12.95
2022-11-13T11:12:10.469Z,13.29
2022-11-13T11:14:45.714Z,13.07
2022-11-13T11:17:13.936Z,12.87
2022-11-13T11:19:40.983Z,12.51
2022-11-13T11:22:19.773Z,12.66
2022-11-13T11:25:00.687Z,12.81
2022-11-13T11:27:37.710Z,12.96
2022-11-13T11:30:19.033Z,13.29
2022-11-13T11:33:00.946Z,13.48
2022-11-13T11:35:39.250Z,13.42
2022-11-13T11:38:11.919Z,13.31
2022-11-13T11:40:43.706Z,13.28
2022-11-13T11:43:41.603Z,13.34
2022-11-13T11:46:23.446Z,13.57
2022-11-13T11:48:50.408Z,13.71
2022-11-13T11:51:31.094Z,13.73
2022-11-13T11:54:11.475Z,13.93
2022-11-13T11:56:57.409Z,14.12
2022-11-13T11:59:51.721Z,13.98
2022-11-13T12:02:47.241Z,13.62
2022-11-13T12:05:41.093Z,13.44
2022-11-13T12:08:26.302Z,13.44
2022-11-13T12:11:21.423Z,13.19
2022-11-13T12:14:04.667Z,12.35
2022-11-13T12:16:49.017Z,11.61
2022-11-13T12:19:22.084Z,11.88
2022-11-13T12:21:58.266Z,11.90
2022-11-13T12:25:09.240Z,11.90
2022-11-13T12:27:41.706Z,12.35
2022-11-13T12:30:17.990Z,12.20
2022-11-13T12:33:02.679Z,12.37
2022-11-13T12:35:29.460Z,12.46
2022-11-13T12:38:31.596Z,12.67
2022-11-13T12:41:28.110Z,12.92
2022-11-13T12:44:12.835Z,12.84
2022-11-13T12:46:41.535Z,12.72
2022-11-13T12:49:23.645Z,12.51
2022-11-13T12:51:59.780Z,12.25
2022-11-13T12:54:31.851Z,12.35
2022-11-13T12:57:14.075Z,12.33
2022-11-13T12:59:42.941Z,12.61
2022-11-13T13:02:38.856Z,12.84
2022-11-13T13:05:14.952Z,13.08
2022-11-13T13:08:04.765Z,13.20
2022-11-13T13:10:34.716Z,13.14
2022-11-13T13:13:23.680Z,13.15
2022-11-13T13:15:59.414Z,13.17
2022-11-13T13:18:37.012Z,12.98
2022-11-13T13:21:16.205Z,12.89
2022-11-13T13:23:45.879Z,12.83
2022-11-13T13:26:21.372Z,12.44
2022-11-13T13:28:53.393Z,12.36
2022-11-13T13:31:47.864Z,12.18
2022-11-13T13:34:48.685Z,11.82
2022-11-13T13:37:29.327Z,11.70
2022-11-13T13:40:14.162Z,11.43
2022-11-13T13:42:55.907Z,11.32
2022-11-13T13:45:34.528Z,11.57
2022-11-13T13:48:01.544Z,11.73
2022-11-13T13:50:30.919Z,11.66
2022-11-13T13:52:58.545Z,11.80
2022-11-13T13:55:33.713Z,11.89
2022-11-13T13:58:05.538Z,11.84
2022-11-13T14:00:32.531Z,11.96
2022-11-13T14:02:59.179Z,11.94
2022-11-13T14:05:27.603Z,11.99
2022-11-13T14:07:54.399Z,11.64
2022-11-13T14:10:27.756Z,11.67
2022-11-13T14:12:55.734Z,11.67
2022-11-13T14:15:28.099Z,11.78
2022-11-13T14:18:14.946Z,11.40
2022-11-13T14:20:48.328Z,11.52
2022-11-13T14:23:36.601Z,11.66
2022-11-13T14:26:04.900Z,11.91
2022-11-13T14:28:34.300Z,11.96
2022-11-13T14:31:03.462Z,11.98
2022-11-13T14:33:37.400Z,12.01
2022-11-13T14:36:04.249Z,12.12
2022-11-13T14:38:34.862Z,12.69
2022-11-13T14:41:02.574Z,12.94
2022-11-13T14:43:31.432Z,13.17
2022-11-13T14:46:00.381Z,13.12
2022-11-13T14:48:32.000Z,13.18
2022-11-13T14:51:06.379Z,12.94
2022-11-13T14:53:38.555Z,12.44
2022-11-13T14:56:07.392Z,12.35
2022-11-13T14:58:36.168Z,12.16
2022-11-13T15:01:17.727Z,12.17
2022-11-13T15:03:45.593Z,12.14
2022-11-13T15:06:14.213Z,12.14
2022-11-13T15:08:40.789Z,12.08
2022-11-13T15:11:10.352Z,11.98
2022-11-13T15:13:36.834Z,11.80
2022-11-13T15:16:03.717Z,11.91
2022-11-13T15:18:30.201Z,12.87
2022-11-13T15:20:56.687Z,13.21
2022-11-13T15:23:25.536Z,13.23
2022-11-13T15:25:52.159Z,13.12
2022-11-13T15:28:18.621Z,12.74
2022-11-13T15:30:45.176Z,12.54
2022-11-13T15:33:18.161Z,12.14
2022-11-13T15:35:44.721Z,11.93
2022-11-13T15:38:11.332Z,11.73
2022-11-13T15:40:38.384Z,11.53
2022-11-13T15:43:06.359Z,11.31
2022-11-13T15:45:33.047Z,11.20
2022-11-13T15:47:59.537Z,11.18
2022-11-13T15:50:26.062Z,11.10
2022-11-13T15:52:53.099Z,10.89
2022-11-13T15:55:30.923Z,10.75
2022-11-13T15:57:58.007Z,10.70
2022-11-13T16:00:26.123Z,10.71
2022-11-13T16:02:53.805Z,10.62
2022-11-13T16:05:25.990Z,10.49
2022-11-13T16:07:55.931Z,10.44
2022-11-13T16:10:23.064Z,10.35
2022-11-13T16:12:49.599Z,10.24
2022-11-13T16:15:16.855Z,10.11
2022-11-13T16:17:49.447Z,10.09
2022-11-13T16:20:17.345Z,9.80
2022-11-13T16:22:44.501Z,9.75
2022-11-13T16:25:21.410Z,9.78
2022-11-13T16:27:48.232Z,9.60
2022-11-13T16:30:17.160Z,9.43
2022-11-13T16:32:43.721Z,9.30
2022-11-13T16:35:17.941Z,9.31
2022-11-13T16:37:44.758Z,9.22
2022-11-13T16:40:25.849Z,9.08
2022-11-13T16:42:52.904Z,8.99
2022-11-13T16:45:20.556Z,8.97
2022-11-13T16:47:47.323Z,8.95
2022-11-13T16:50:19.694Z,8.90
2022-11-13T16:52:46.224Z,8.90
2022-11-13T16:55:12.884Z,8.78
2022-11-13T16:57:40.232Z,8.70
2022-11-13T17:00:08.425Z,8.71
2022-11-13T17:02:34.907Z,8.78
2022-11-13T17:05:01.499Z,8.85
2022-11-13T17:07:28.147Z,8.67
2022-11-13T17:10:16.680Z,8.65
2022-11-13T17:12:41.856Z,8.54
2022-11-13T17:15:09.491Z,8.55
2022-11-13T17:17:36.022Z,8.55
2022-11-13T17:20:02.662Z,8.58
2022-11-13T17:22:29.130Z,8.51
2022-11-13T17:24:55.644Z,8.63
2022-11-13T17:27:24.228Z,8.70
2022-11-13T17:29:50.729Z,8.72
2022-11-13T17:32:17.211Z,8.65
2022-11-13T17:34:43.663Z,8.72
2022-11-13T17:37:10.135Z,8.65
2022-11-13T17:39:36.640Z,8.75
2022-11-13T17:42:03.620Z,8.67
2022-11-13T17:44:30.107Z,8.70
2022-11-13T17:46:56.897Z,8.67
2022-11-13T17:49:23.398Z,8.83
2022-11-13T17:51:49.846Z,8.60
2022-11-13T17:54:16.318Z,8.69
2022-11-13T17:56:43.165Z,8.71
2022-11-13T17:59:09.646Z,8.73
2022-11-13T18:01:36.362Z,8.73
2022-11-13T18:04:02.907Z,8.55
2022-11-13T18:06:29.356Z,8.49
2022-11-13T18:08:56.169Z,8.51
2022-11-13T18:11:25.202Z,8.54
2022-11-13T18:13:52.107Z,8.46
2022-11-13T18:16:24.264Z,8.57
2022-11-13T18:18:52.561Z,8.50
2022-11-13T18:21:24.437Z,8.49
2022-11-13T18:23:59.364Z,8.49
2022-11-13T18:26:26.932Z,8.45
2022-11-13T18:28:53.469Z,8.53
2022-11-13T18:31:20.536Z,8.43
2022-11-13T18:33:47.314Z,8.46
2022-11-13T18:36:14.060Z,8.42
2022-11-13T18:38:40.669Z,8.43
2022-11-13T18:41:09.689Z,8.30
2022-11-13T18:43:36.440Z,8.25
2022-11-13T18:46:05.332Z,8.25
2022-11-13T18:48:36.755Z,8.24
2022-11-13T18:51:05.824Z,8.21
2022-11-13T18:53:32.847Z,8.11
2022-11-13T18:56:00.892Z,7.99
2022-11-13T18:58:28.158Z,7.91
2022-11-13T19:00:55.634Z,7.88
2022-11-13T19:03:23.238Z,7.92
2022-11-13T19:05:50.367Z,8.00
2022-11-13T19:08:17.075Z,8.13
2022-11-13T19:10:43.554Z,8.18
2022-11-13T19:13:10.075Z,8.37
2022-11-13T19:15:37.488Z,8.38
2022-11-13T19:18:05.795Z,8.46
2022-11-13T19:20:32.684Z,8.55
2022-11-13T19:22:59.723Z,8.63
2022-11-13T19:25:26.196Z,8.51
2022-11-13T19:27:53.101Z,8.51
2022-11-13T19:30:19.997Z,8.47
2022-11-13T19:32:46.537Z,8.59
2022-11-13T19:35:13.083Z,8.39
2022-11-13T19:37:39.737Z,8.55
2022-11-13T19:40:06.941Z,8.57
2022-11-13T19:42:34.634Z,8.55
2022-11-13T19:45:03.789Z,8.67
2022-11-13T19:47:30.322Z,8.60
2022-11-13T19:49:56.912Z,8.66
2022-11-13T19:52:23.637Z,8.72
2022-11-13T19:54:50.332Z,8.78
2022-11-13T19:57:16.784Z,8.72
2022-11-13T19:59:43.243Z,8.57
2022-11-13T20:02:10.395Z,8.67
2022-11-13T20:04:36.901Z,8.66
2022-11-13T20:07:03.622Z,8.66
2022-11-13T20:09:30.250Z,8.65
2022-11-13T20:11:56.712Z,8.55
2022-11-13T20:14:23.323Z,8.56
2022-11-13T20:16:50.204Z,8.53
2022-11-13T20:19:16.690Z,8.46
2022-11-13T20:21:45.780Z,8.35
2022-11-13T20:24:12.300Z,8.42
2022-11-13T20:26:38.749Z,8.10
2022-11-13T20:29:05.429Z,8.24
2022-11-13T20:31:32.011Z,8.42
2022-11-13T20:33:58.827Z,8.45
2022-11-13T20:36:25.625Z,8.49
2022-11-13T20:38:54.747Z,8.50
2022-11-13T20:41:21.423Z,8.69
2022-11-13T20:43:48.755Z,8.71
2022-11-13T20:46:16.669Z,8.81
2022-11-13T20:48:43.172Z,8.78
2022-11-13T20:51:21.050Z,8.62
2022-11-13T20:53:48.189Z,8.52
2022-11-13T20:56:15.263Z,8.50
2022-11-13T20:58:42.021Z,8.26
2022-11-13T21:01:13.482Z,8.15
2022-11-13T21:03:42.792Z,8.09
2022-11-13T21:06:11.137Z,7.86
2022-11-13T21:08:40.011Z,7.91
2022-11-13T21:11:07.891Z,7.78
2022-11-13T21:13:34.838Z,7.92
2022-11-13T21:16:06.480Z,7.90
2022-11-13T21:18:33.587Z,7.81
2022-11-13T21:21:14.965Z,7.73
2022-11-13T21:23:41.597Z,7.77
2022-11-13T21:26:08.895Z,7.87
2022-11-13T21:28:36.196Z,8.06
2022-11-13T21:31:10.213Z,8.30
2022-11-13T21:33:37.701Z,8.35
2022-11-13T21:36:05.939Z,8.55
2022-11-13T21:38:33.037Z,8.67
2022-11-13T21:41:01.441Z,8.54
2022-11-13T21:43:27.950Z,8.59
2022-11-13T21:45:54.433Z,8.62
2022-11-13T21:48:20.969Z,8.56
2022-11-13T21:50:47.710Z,8.62
2022-11-13T21:53:14.248Z,8.61
2022-11-13T21:55:48.917Z,8.73
2022-11-13T21:58:15.421Z,8.60
2022-11-13T22:00:42.017Z,8.57
2022-11-13T22:03:08.535Z,8.51
2022-11-13T22:05:35.242Z,8.49
2022-11-13T22:08:01.857Z,8.63
2022-11-13T22:10:28.420Z,8.69
2022-11-13T22:12:54.919Z,8.74
2022-11-13T22:15:21.415Z,8.75
2022-11-13T22:17:47.919Z,8.80
2022-11-13T22:20:15.045Z,8.78
2022-11-13T22:22:41.584Z,8.71
2022-11-13T22:25:08.167Z,8.57
2022-11-13T22:27:34.632Z,8.49
2022-11-13T22:30:01.172Z,8.50
2022-11-13T22:32:27.673Z,8.62
2022-11-13T22:34:54.143Z,8.48
2022-11-13T22:37:20.614Z,8.48
2022-11-13T22:39:47.153Z,8.40
2022-11-13T22:42:13.736Z,8.15
2022-11-13T22:44:55.307Z,8.28
2022-11-13T22:47:23.373Z,8.19
2022-11-13T22:49:49.910Z,8.19
2022-11-13T22:52:16.378Z,8.30
2022-11-13T22:54:45.199Z,8.07
2022-11-13T22:57:11.782Z,8.11
2022-11-13T22:59:38.260Z,7.93
2022-11-13T23:02:04.927Z,8.05
2022-11-13T23:04:31.545Z,8.14
2022-11-13T23:06:58.122Z,8.22
2022-11-13T23:09:24.858Z,8.11
2022-11-13T23:11:51.332Z,8.27
2022-11-13T23:14:17.853Z,8.31
2022-11-13T23:16:44.325Z,8.41
2022-11-13T23:19:10.825Z,8.48
2022-11-13T23:21:37.367Z,8.28
2022-11-13T23:24:04.034Z,8.28
2022-11-13T23:26:30.860Z,8.42
2022-11-13T23:28:57.381Z,8.50
2022-11-13T23:31:24.104Z,8.54
2022-11-13T23:33:50.605Z,8.70
2022-11-13T23:36:17.444Z,8.77
2022-11-13T23:38:43.957Z,8.82
2022-11-13T23:41:10.969Z,8.64
2022-11-13T23:44:07.182Z,8.74
2022-11-13T23:46:24.182Z,8.78
2022-11-13T23:48:50.737Z,8.72
2022-11-13T23:51:17.220Z,8.60
2022-11-13T23:53:47.260Z,8.71
2022-11-13T23:56:13.958Z,8.78
2022-11-13T23:58:40.413Z,8.77
